createdAt,value
2022-08-22T00:03:03.231Z,87.33
2022-08-22T00:03:03.387Z,87.59
2022-08-22T00:03:10.286Z,87.60
2022-08-22T05:03:02.712Z,91.14
2022-08-22T05:05:39.532Z,91.17
2022-08-22T05:08:17.002Z,91.22
2022-08-22T05:11:11.342Z,91.18
2022-08-22T05:13:56.779Z,91.11
2022-08-22T05:16:37.661Z,91.03
2022-08-22T05:19:27.076Z,90.93
2022-08-22T05:21:58.059Z,90.94
2022-08-22T05:24:46.611Z,90.99
2022-08-22T05:27:29.843Z,91.07
2022-08-22T05:30:16.112Z,91.01
2022-08-22T05:33:21.079Z,91.08
2022-08-22T05:36:05.023Z,91.00
2022-08-22T05:38:44.161Z,91.06
2022-08-22T05:41:21.737Z,91.00
2022-08-22T05:43:51.480Z,90.94
2022-08-22T05:46:42.560Z,90.90
2022-08-22T05:50:09.115Z,90.95
2022-08-22T05:53:00.950Z,91.10
2022-08-22T05:55:33.020Z,91.15
2022-08-22T05:58:44.402Z,91.17
2022-08-22T06:01:24.582Z,91.19
2022-08-22T06:04:14.335Z,91.23
2022-08-22T06:07:04.782Z,91.23
2022-08-22T06:09:46.942Z,91.22
2022-08-22T06:12:45.004Z,91.33
2022-08-22T06:15:27.443Z,91.35
2022-08-22T06:18:05.466Z,91.34
2022-08-22T06:21:26.220Z,91.44
2022-08-22T06:24:02.520Z,91.40
2022-08-22T06:26:47.119Z,91.44
2022-08-22T06:29:37.855Z,91.49
2022-08-22T06:32:44.578Z,91.50
2022-08-22T06:35:55.722Z,91.55
2022-08-22T06:38:34.636Z,91.60
2022-08-22T06:41:08.419Z,91.67
2022-08-22T06:43:44.122Z,91.71
2022-08-22T06:46:16.808Z,91.68
2022-08-22T06:48:46.594Z,91.67
2022-08-22T06:51:18.596Z,91.71
2022-08-22T06:53:55.738Z,91.71
2022-08-22T06:56:40.192Z,91.68
2022-08-22T06:59:15.754Z,91.71
2022-08-22T07:02:04.263Z,91.81
2022-08-22T07:04:37.260Z,91.82
2022-08-22T07:07:07.297Z,91.89
2022-08-22T07:09:38.818Z,91.98
2022-08-22T07:12:16.576Z,91.99
2022-08-22T07:14:52.917Z,92.01
2022-08-22T07:17:30.799Z,92.00
2022-08-22T07:20:26.652Z,91.96
2022-08-22T07:23:14.575Z,91.90
2022-08-22T07:26:14.921Z,91.90
2022-08-22T08:07:13.172Z,91.97
2022-08-22T08:09:55.343Z,91.88
2022-08-22T08:12:39.443Z,91.78
2022-08-22T08:15:20.973Z,91.72
2022-08-22T08:18:05.093Z,91.63
2022-08-22T08:20:37.594Z,91.58
2022-08-22T08:23:11.394Z,91.53
2022-08-22T08:26:36.212Z,91.55
2022-08-22T08:29:08.772Z,91.60
2022-08-22T08:31:43.355Z,91.60
2022-08-22T08:57:06.257Z,91.40
2022-08-22T09:00:50.865Z,91.09
2022-08-22T09:04:47.940Z,90.99
2022-08-22T09:08:31.967Z,90.98
2022-08-22T09:12:05.547Z,90.91
2022-08-22T09:15:34.318Z,90.86
2022-08-22T09:18:26.961Z,90.81
2022-08-22T09:21:52.880Z,90.81
2022-08-22T09:24:37.816Z,90.96
2022-08-22T09:32:21.737Z,91.11
2022-08-22T09:35:41.925Z,91.25
2022-08-22T09:38:47.824Z,91.30
2022-08-22T09:41:53.122Z,91.16
2022-08-22T09:45:00.007Z,91.14
2022-08-22T09:47:41.795Z,91.05
2022-08-22T09:51:33.339Z,91.09
2022-08-22T09:54:46.267Z,90.89
2022-08-22T09:57:31.621Z,90.80
2022-08-22T10:00:12.926Z,90.80
2022-08-22T10:03:27.786Z,90.75
2022-08-22T10:06:09.184Z,90.70
2022-08-22T10:08:46.914Z,90.62
2022-08-22T10:11:33.386Z,90.71
2022-08-22T10:17:41.049Z,90.68
2022-08-22T11:14:38.275Z,90.59
2022-08-22T11:21:27.936Z,90.32
2022-08-22T11:25:08.407Z,90.27
2022-08-22T11:29:28.221Z,90.24
2022-08-22T11:32:33.155Z,90.20
2022-08-22T11:35:26.823Z,90.10
2022-08-22T11:38:03.091Z,90.10
2022-08-22T11:40:42.556Z,90.08
2022-08-22T11:43:49.114Z,90.06
2022-08-22T11:46:43.816Z,90.06
2022-08-22T11:49:48.795Z,90.06
2022-08-22T11:52:37.514Z,89.93
2022-08-22T11:55:34.662Z,89.99
2022-08-22T11:59:40.018Z,90.01
2022-08-22T12:03:23.255Z,90.01
2022-08-22T12:06:21.827Z,90.22
2022-08-22T12:08:50.853Z,90.27
2022-08-22T12:11:32.415Z,90.30
2022-08-22T12:14:38.173Z,90.26
2022-08-22T12:17:51.033Z,90.33
2022-08-22T12:20:45.725Z,90.31
2022-08-22T12:23:43.226Z,90.36
2022-08-22T12:27:09.794Z,90.40
2022-08-22T12:30:05.405Z,90.40
2022-08-22T12:33:03.088Z,90.38
2022-08-22T12:41:46.516Z,90.62
2022-08-22T12:45:09.730Z,90.64
2022-08-22T12:48:32.518Z,90.69
2022-08-22T12:51:51.954Z,90.76
2022-08-22T12:54:43.578Z,90.84
2022-08-22T13:02:16.956Z,90.96
2022-08-22T13:05:09.244Z,90.99
2022-08-22T13:07:49.891Z,90.96
2022-08-22T13:10:44.889Z,90.90
2022-08-22T13:13:37.237Z,90.89
2022-08-22T13:16:15.636Z,90.91
2022-08-22T13:19:00.962Z,90.90
2022-08-22T13:21:50.223Z,90.97
2022-08-22T13:24:52.851Z,91.11
2022-08-22T13:31:51.522Z,91.19
2022-08-22T13:34:40.575Z,91.04
2022-08-22T13:37:20.284Z,90.98
2022-08-22T13:40:00.741Z,90.91
2022-08-22T13:43:02.567Z,90.90
2022-08-22T13:45:34.392Z,90.79
2022-08-22T13:48:15.101Z,90.77
2022-08-22T13:51:16.122Z,90.70
2022-08-22T13:54:17.781Z,90.65
2022-08-22T13:57:24.632Z,90.73
2022-08-22T14:00:59.212Z,90.77
2022-08-22T14:03:48.465Z,90.70
2022-08-22T14:06:37.276Z,90.77
2022-08-22T14:09:36.428Z,90.67
2022-08-22T14:12:13.628Z,90.58
2022-08-22T14:14:49.752Z,90.52
2022-08-22T14:17:30.654Z,90.54
2022-08-22T14:20:11.005Z,90.51
2022-08-22T14:22:57.336Z,90.61
2022-08-22T14:25:33.981Z,90.43
2022-08-22T14:28:20.279Z,90.40
2022-08-22T14:31:20.013Z,90.32
2022-08-22T14:34:17.507Z,90.22
2022-08-22T14:37:32.229Z,90.22
2022-08-22T14:40:26.205Z,90.15
2022-08-22T14:43:31.961Z,90.13
2022-08-22T14:46:14.026Z,90.04
2022-08-22T14:49:18.403Z,89.96
2022-08-22T14:52:19.874Z,89.95
2022-08-22T14:54:48.487Z,90.06
2022-08-22T14:57:19.936Z,90.10
2022-08-22T14:59:54.608Z,90.05
2022-08-22T15:02:33.681Z,90.06
2022-08-22T15:05:22.721Z,89.99
2022-08-22T15:07:59.119Z,89.96
2022-08-22T15:10:34.260Z,89.89
2022-08-22T15:13:07.706Z,89.79
2022-08-22T15:15:54.274Z,89.70
2022-08-22T15:18:23.714Z,89.72
2022-08-22T15:21:12.312Z,89.78
2022-08-22T15:23:46.922Z,89.69
2022-08-22T15:26:28.302Z,89.70
2022-08-22T15:29:16.318Z,89.71
2022-08-22T15:31:47.947Z,89.61
2022-08-22T15:34:35.909Z,89.66
2022-08-22T15:37:20.059Z,89.70
2022-08-22T15:40:34.109Z,89.64
2022-08-22T15:43:44.156Z,89.73
2022-08-22T15:46:31.896Z,89.65
2022-08-22T15:49:20.340Z,89.66
2022-08-22T15:52:05.312Z,89.72
2022-08-22T15:55:22.644Z,89.77
2022-08-22T15:58:20.303Z,89.77
2022-08-22T16:01:20.656Z,89.77
2022-08-22T16:04:07.439Z,89.69
2022-08-22T16:06:57.925Z,89.64
2022-08-22T16:09:50.747Z,89.62
2022-08-22T16:12:27.063Z,89.66
2022-08-22T16:14:56.072Z,89.64
2022-08-22T16:17:46.052Z,89.65
2022-08-22T16:20:22.115Z,89.78
2022-08-22T16:22:57.249Z,89.85
2022-08-22T16:25:48.846Z,89.86
2022-08-22T16:29:00.355Z,89.98
2022-08-22T16:31:57.599Z,90.05
2022-08-22T16:49:32.020Z,90.00
2022-08-22T16:52:22.286Z,89.86
2022-08-22T16:55:26.714Z,89.80
2022-08-22T16:58:21.817Z,89.90
2022-08-22T17:01:52.038Z,89.99
2022-08-22T17:04:46.727Z,90.01
2022-08-22T17:08:14.767Z,90.10
2022-08-22T17:11:48.942Z,90.27
2022-08-22T17:15:36.095Z,90.42
2022-08-22T17:18:48.238Z,90.50
2022-08-22T17:21:59.497Z,90.50
2022-08-22T17:25:27.456Z,90.58
2022-08-22T17:28:20.803Z,90.62
2022-08-22T17:31:20.013Z,90.67
2022-08-22T17:38:14.308Z,90.60
2022-08-22T17:45:25.732Z,90.72
2022-08-22T17:52:23.114Z,90.85
2022-08-22T17:55:15.040Z,90.95
2022-08-22T17:58:37.463Z,90.91
2022-08-22T18:01:35.927Z,91.00
2022-08-22T18:04:23.516Z,91.09
2022-08-22T18:08:06.378Z,91.22
2022-08-22T18:10:51.617Z,91.20
2022-08-22T18:13:44.031Z,91.20
2022-08-22T18:16:27.096Z,91.20
2022-08-22T18:19:24.226Z,91.22
2022-08-22T18:22:09.495Z,91.21
2022-08-22T18:28:45.043Z,91.40
2022-08-22T18:32:11.004Z,91.49
2022-08-22T18:35:06.217Z,91.50
2022-08-22T18:38:40.469Z,91.57
2022-08-22T18:41:34.933Z,91.61
2022-08-22T18:44:24.566Z,91.69
2022-08-22T18:47:27.106Z,91.71
2022-08-22T18:50:00.156Z,91.70
2022-08-22T18:52:40.008Z,91.82
2022-08-22T18:55:42.705Z,91.80
2022-08-22T18:58:36.083Z,91.91
2022-08-22T19:01:48.722Z,91.90
2022-08-22T19:05:06.531Z,91.86
2022-08-22T19:08:00.197Z,91.87
2022-08-22T19:11:08.011Z,91.81
2022-08-22T19:14:27.284Z,91.83
2022-08-22T19:17:59.205Z,91.88
2022-08-22T19:20:53.546Z,91.84
2022-08-22T19:23:32.463Z,91.92
2022-08-22T19:26:32.174Z,91.90
2022-08-22T19:29:16.864Z,91.90
2022-08-22T19:32:13.107Z,92.00
2022-08-22T19:34:46.994Z,92.00
2022-08-22T19:37:33.225Z,92.03
2022-08-22T19:40:10.372Z,92.10
2022-08-22T19:42:42.946Z,92.18
2022-08-22T19:45:29.281Z,92.29
2022-08-22T19:48:14.084Z,92.30
2022-08-22T19:50:46.173Z,92.30
2022-08-22T19:54:01.676Z,92.31
2022-08-22T19:56:52.050Z,92.38
2022-08-22T19:59:50.958Z,92.47
2022-08-22T20:02:56.122Z,92.44
2022-08-22T20:05:47.363Z,92.52
2022-08-22T20:08:56.852Z,92.63
2022-08-22T20:11:37.798Z,92.69
2022-08-22T20:14:30.089Z,92.72
2022-08-22T20:17:13.736Z,92.69
2022-08-22T20:20:35.083Z,92.62
2022-08-22T20:23:27.168Z,92.62
2022-08-22T20:25:59.557Z,92.64
2022-08-22T20:28:40.302Z,92.65
2022-08-22T20:31:27.116Z,92.67
2022-08-22T20:34:02.949Z,92.78
2022-08-22T20:36:32.575Z,92.85
2022-08-22T20:39:18.248Z,92.94
2022-08-22T20:42:02.586Z,92.91
2022-08-22T20:45:12.094Z,92.93
2022-08-22T20:47:50.575Z,92.92
2022-08-22T20:50:25.526Z,93.01
2022-08-22T20:53:22.050Z,93.01
2022-08-22T20:55:55.340Z,93.10
2022-08-22T20:58:37.576Z,93.01
2022-08-22T21:01:10.107Z,93.11
2022-08-22T21:03:50.563Z,93.12
2022-08-22T21:06:34.966Z,93.10
2022-08-22T21:09:39.361Z,93.14
2022-08-22T21:12:10.709Z,93.14
2022-08-22T21:14:46.355Z,93.10
2022-08-22T21:17:29.186Z,93.12
2022-08-22T21:20:22.117Z,93.16
2022-08-22T21:22:50.611Z,93.17
2022-08-22T21:25:18.369Z,93.22
2022-08-22T21:27:48.889Z,93.20
2022-08-22T21:30:28.261Z,93.20
2022-08-22T21:32:57.482Z,93.21
2022-08-22T21:35:33.130Z,93.22
2022-08-22T21:38:26.215Z,93.21
2022-08-22T21:41:04.258Z,93.21
2022-08-22T21:43:38.580Z,93.22
2022-08-22T21:46:08.701Z,93.24
2022-08-22T21:49:02.686Z,93.24
2022-08-22T21:51:46.106Z,93.20
2022-08-22T21:54:26.056Z,93.23
2022-08-22T21:57:20.236Z,93.19
